Time;durP1;ratioP1;P1;durP2;ratioP2;P2;SDS_P1;SDS_P2;PMS_P1;PMS_P2;Temp;Humidity;BMP_temperature;BMP_pressure;BME280_temperature;BME280_humidity;BME280_pressure;Samples;Min_cycle;Max_cycle;Signal;HPM_P1;HPM_P2
2022/09/13 00:01:16;;;;;;;12.18;8.55;;;19.00;73.40;;;;;;5032114;28;20057;-76
2022/09/13 00:03:43;;;;;;;13.40;9.00;;;19.00;73.80;;;;;;5031823;28;20077;-76
2022/09/13 00:06:13;;;;;;;13.52;8.70;;;19.00;73.90;;;;;;5014569;28;20049;-76
2022/09/13 00:08:42;;;;;;;12.95;8.80;;;19.00;74.20;;;;;;5014256;28;20058;-76
2022/09/13 00:11:15;;;;;;;11.93;8.27;;;19.00;74.20;;;;;;4997692;28;20132;-76
2022/09/13 00:13:42;;;;;;;12.57;8.80;;;19.00;74.30;;;;;;5032062;28;20050;-76
2022/09/13 00:16:12;;;;;;;13.02;8.05;;;19.00;74.30;;;;;;5014231;28;20049;-76
2022/09/13 00:18:41;;;;;;;14.07;8.32;;;18.90;74.40;;;;;;5013771;28;20132;-76
2022/09/13 00:21:10;;;;;;;13.95;9.02;;;18.90;74.70;;;;;;5031676;28;20053;-76
2022/09/13 00:23:37;;;;;;;13.60;8.57;;;18.80;75.30;;;;;;5030259;28;20108;-76
2022/09/13 00:26:08;;;;;;;16.13;9.20;;;18.80;75.40;;;;;;5013610;28;20536;-76
2022/09/13 00:28:50;;;;;;;14.10;9.40;;;18.80;75.70;;;;;;5034060;28;20066;-76
2022/09/13 00:31:17;;;;;;;15.38;9.88;;;18.70;76.10;;;;;;5012606;28;20060;-76
2022/09/13 00:33:45;;;;;;;17.20;10.65;;;18.70;75.70;;;;;;5029982;28;20058;-76
2022/09/13 00:36:14;;;;;;;14.07;9.83;;;18.70;76.00;;;;;;5012615;28;20637;-76
2022/09/13 00:38:42;;;;;;;14.82;9.50;;;18.70;76.20;;;;;;5029646;28;20460;-76
2022/09/13 00:41:12;;;;;;;13.27;9.05;;;18.60;76.20;;;;;;5012293;28;20141;-76
2022/09/13 00:43:47;;;;;;;14.35;9.68;;;18.60;76.20;;;;;;5030518;28;20077;-76
2022/09/13 00:46:19;;;;;;;15.43;9.75;;;18.70;76.20;;;;;;5014018;28;20112;-76
2022/09/13 00:48:49;;;;;;;14.60;9.90;;;18.70;76.30;;;;;;5013793;28;20042;-76
2022/09/13 00:51:19;;;;;;;16.52;10.40;;;18.70;76.30;;;;;;5031381;28;20560;-76
2022/09/13 00:53:52;;;;;;;17.63;10.75;;;18.70;76.30;;;;;;5013503;28;20053;-76
2022/09/13 00:56:25;;;;;;;17.10;10.27;;;18.70;76.30;;;;;;5013438;28;20069;-76
2022/09/13 00:58:57;;;;;;;15.75;10.77;;;18.70;76.30;;;;;;5029623;28;20104;-76
2022/09/13 01:01:33;;;;;;;17.10;10.27;;;18.80;76.50;;;;;;5034218;28;20056;-76
2022/09/13 01:04:02;;;;;;;15.70;10.60;;;18.80;76.50;;;;;;5013037;28;20149;-76
2022/09/13 01:06:32;;;;;;;16.75;11.02;;;18.80;76.50;;;;;;5013105;28;20042;-76
2022/09/13 01:09:03;;;;;;;19.45;12.00;;;18.80;76.60;;;;;;5012855;28;20500;-76
2022/09/13 01:11:38;;;;;;;16.00;10.25;;;18.80;76.50;;;;;;5013307;28;20494;-76
2022/09/13 01:14:06;;;;;;;17.53;11.53;;;18.80;76.50;;;;;;5013342;28;20058;-76
2022/09/13 01:16:33;;;;;;;17.73;11.00;;;18.90;76.50;;;;;;5031143;28;20140;-76
2022/09/13 01:19:00;;;;;;;15.85;10.85;;;18.90;76.50;;;;;;5013105;28;20046;-76
2022/09/13 01:22:01;;;;;;;15.27;10.77;;;18.90;76.60;;;;;;5031593;28;20594;-76
2022/09/13 01:24:56;;;;;;;15.77;11.02;;;18.90;76.90;;;;;;5031068;28;20089;-76
2022/09/13 01:27:38;;;;;;;18.23;12.13;;;18.80;77.00;;;;;;5012634;28;20050;-76
2022/09/13 01:30:13;;;;;;;19.15;11.50;;;18.80;77.00;;;;;;5030923;28;20100;-76
2022/09/13 01:33:10;;;;;;;19.25;11.88;;;18.80;77.00;;;;;;5013315;28;20522;-76
2022/09/13 01:35:51;;;;;;;19.02;11.80;;;18.80;77.20;;;;;;5012602;28;20140;-76
2022/09/13 01:38:33;;;;;;;17.08;11.68;;;18.80;77.10;;;;;;5030923;28;20140;-76
2022/09/13 01:41:09;;;;;;;17.70;12.00;;;18.80;77.20;;;;;;4996320;28;20057;-76
2022/09/13 01:43:44;;;;;;;21.92;12.77;;;18.80;77.50;;;;;;5029586;28;20137;-76
2022/09/13 01:46:17;;;;;;;18.15;12.20;;;18.70;77.50;;;;;;5030611;28;20503;-76
2022/09/13 01:48:55;;;;;;;18.98;12.38;;;18.70;77.70;;;;;;5012383;28;21020;-76
2022/09/13 01:51:28;;;;;;;19.85;12.52;;;18.70;77.70;;;;;;5012750;28;20893;-76
2022/09/13 01:54:15;;;;;;;19.17;12.40;;;18.70;77.90;;;;;;5012673;28;20133;-76
2022/09/13 01:56:51;;;;;;;20.23;12.13;;;18.70;77.90;;;;;;4996306;28;20531;-76
2022/09/13 01:59:22;;;;;;;18.02;12.32;;;18.70;78.00;;;;;;5012514;28;20078;-76
2022/09/13 02:01:56;;;;;;;18.17;12.35;;;18.70;78.20;;;;;;5012694;28;20125;-76
2022/09/13 02:04:27;;;;;;;18.10;12.32;;;18.70;78.30;;;;;;5012870;28;20544;-76
2022/09/13 02:07:03;;;;;;;18.17;12.13;;;18.70;78.40;;;;;;5013863;28;20924;-77
2022/09/13 02:09:35;;;;;;;18.40;11.73;;;18.70;78.40;;;;;;5012602;28;20529;-77
2022/09/13 02:12:07;;;;;;;18.08;11.52;;;18.60;78.50;;;;;;5030250;28;20113;-77
2022/09/13 02:14:38;;;;;;;19.67;12.25;;;18.60;78.60;;;;;;5030645;28;20058;-77
2022/09/13 02:17:10;;;;;;;19.05;11.70;;;18.60;78.70;;;;;;5012345;28;20082;-77
2022/09/13 02:19:41;;;;;;;19.33;12.27;;;18.60;78.70;;;;;;5012309;28;20054;-77
2022/09/13 02:22:12;;;;;;;20.55;12.65;;;18.60;78.90;;;;;;5030605;28;21134;-77
2022/09/13 02:24:45;;;;;;;20.17;12.32;;;18.60;78.90;;;;;;5012740;28;20492;-77
2022/09/13 02:27:17;;;;;;;20.10;12.63;;;18.50;79.10;;;;;;5012602;28;20056;-77
2022/09/13 02:29:48;;;;;;;20.55;13.00;;;18.50;79.10;;;;;;5011913;28;20050;-77
2022/09/13 02:32:20;;;;;;;20.23;12.60;;;18.50;79.30;;;;;;5012658;28;20081;-77
2022/09/13 02:34:51;;;;;;;21.50;12.43;;;18.50;79.30;;;;;;5012341;28;20046;-77
2022/09/13 02:37:19;;;;;;;19.73;12.73;;;18.50;79.40;;;;;;5030526;28;20054;-77
2022/09/13 02:39:52;;;;;;;19.35;12.68;;;18.50;79.50;;;;;;5015520;28;20420;-77
2022/09/13 02:42:23;;;;;;;21.25;12.45;;;18.50;79.70;;;;;;5033009;28;20153;-77
2022/09/13 02:44:53;;;;;;;20.87;12.07;;;18.40;79.90;;;;;;5014761;28;20057;-77
2022/09/13 02:47:33;;;;;;;18.70;11.57;;;18.50;80.00;;;;;;5033517;28;20049;-77
2022/09/13 02:50:21;;;;;;;19.02;12.10;;;18.40;80.00;;;;;;5015575;28;20458;-77
2022/09/13 02:52:54;;;;;;;17.60;11.55;;;18.40;80.10;;;;;;5033253;28;20061;-77
2022/09/13 02:55:27;;;;;;;18.50;11.60;;;18.40;80.10;;;;;;4999181;28;20560;-77
2022/09/13 02:58:03;;;;;;;18.37;11.83;;;18.40;80.40;;;;;;5015384;28;20069;-77
2022/09/13 03:00:30;;;;;;;18.88;11.48;;;18.40;80.30;;;;;;5015020;28;20510;-77
2022/09/13 03:03:03;;;;;;;17.58;11.07;;;18.40;80.70;;;;;;5032876;28;20054;-77
2022/09/13 03:05:31;;;;;;;18.88;10.93;;;18.40;80.70;;;;;;5014968;28;20141;-77
2022/09/13 03:07:58;;;;;;;19.17;11.60;;;18.40;80.70;;;;;;5033259;28;20057;-77
2022/09/13 03:10:32;;;;;;;19.20;12.00;;;18.40;80.70;;;;;;5032859;28;20050;-77
2022/09/13 03:13:24;;;;;;;19.58;12.23;;;18.40;81.10;;;;;;5015066;28;20050;-77
2022/09/13 03:16:03;;;;;;;18.48;11.55;;;18.40;81.00;;;;;;5008380;28;20512;-77
2022/09/13 03:18:51;;;;;;;20.05;12.10;;;18.40;81.20;;;;;;5033107;28;20133;-77
2022/09/13 03:21:31;;;;;;;20.35;12.60;;;18.40;81.20;;;;;;5014800;28;20046;-77
2022/09/13 03:24:08;;;;;;;19.83;12.60;;;18.30;81.40;;;;;;5031537;28;20058;-77
2022/09/13 03:26:44;;;;;;;18.65;11.95;;;18.40;81.70;;;;;;5015216;28;20053;-77
2022/09/13 03:29:23;;;;;;;17.33;11.68;;;18.30;81.80;;;;;;5032584;28;20064;-77
2022/09/13 03:32:04;;;;;;;18.60;12.50;;;18.30;81.90;;;;;;5015184;28;20085;-77
2022/09/13 03:34:39;;;;;;;20.08;12.23;;;18.30;81.90;;;;;;5032961;28;20177;-77
2022/09/13 03:37:10;;;;;;;21.30;11.53;;;18.30;82.00;;;;;;5014714;28;20045;-77
2022/09/13 03:39:42;;;;;;;18.80;10.88;;;18.30;82.00;;;;;;4998006;28;20169;-76
2022/09/13 03:42:22;;;;;;;18.60;11.07;;;18.30;82.10;;;;;;5014642;28;20606;-77
2022/09/13 03:44:52;;;;;;;17.33;10.77;;;18.30;82.20;;;;;;5014628;28;20108;-77
2022/09/13 03:51:11;;;;;;;16.20;10.13;;;18.40;82.40;;;;;;5029893;28;20060;-77
2022/09/13 03:53:42;;;;;;;15.07;9.90;;;18.30;82.50;;;;;;5014420;28;20056;-77
2022/09/13 03:56:13;;;;;;;15.60;9.70;;;18.30;82.40;;;;;;5014716;28;20081;-77
2022/09/13 03:58:41;;;;;;;15.02;9.50;;;18.30;82.50;;;;;;5014593;28;20050;-77
2022/09/13 04:01:09;;;;;;;17.45;10.63;;;18.30;82.50;;;;;;5013964;28;20423;-77
2022/09/13 04:07:32;;;;;;;16.92;9.90;;;18.30;82.80;;;;;;5013968;28;20137;-77
2022/09/13 04:10:00;;;;;;;17.17;9.88;;;18.30;82.70;;;;;;5014050;28;20050;-77
2022/09/13 04:12:27;;;;;;;14.13;9.32;;;18.30;82.90;;;;;;5032076;28;20520;-77
2022/09/13 04:14:54;;;;;;;13.18;8.65;;;18.40;83.10;;;;;;5014090;28;20125;-77
2022/09/13 04:17:21;;;;;;;15.33;8.97;;;18.40;83.10;;;;;;5014346;28;20151;-77
2022/09/13 04:19:48;;;;;;;17.15;10.00;;;18.40;83.10;;;;;;4997334;28;20046;-77
2022/09/13 04:22:15;;;;;;;15.65;9.25;;;18.30;83.40;;;;;;5031799;28;20049;-77
2022/09/13 04:24:44;;;;;;;12.90;7.57;;;18.30;83.50;;;;;;5014310;28;20049;-77
2022/09/13 04:27:11;;;;;;;15.43;8.85;;;18.40;83.70;;;;;;5014164;28;20868;-77
2022/09/13 04:29:38;;;;;;;15.70;9.30;;;18.30;83.50;;;;;;5013605;28;20141;-77
2022/09/13 04:32:05;;;;;;;14.20;8.88;;;18.30;83.60;;;;;;5013546;28;20515;-77
2022/09/13 04:34:33;;;;;;;13.32;8.90;;;18.40;83.80;;;;;;5013771;28;20415;-77
2022/09/13 04:37:00;;;;;;;15.75;8.07;;;18.40;83.80;;;;;;5013797;28;20544;-76
2022/09/13 04:39:27;;;;;;;12.25;7.50;;;18.40;84.10;;;;;;5031794;28;20167;-76
2022/09/13 04:41:56;;;;;;;13.13;7.10;;;18.30;84.50;;;;;;5031923;28;20464;-77
2022/09/13 04:44:23;;;;;;;12.02;7.85;;;18.30;84.60;;;;;;5013597;28;20086;-77
2022/09/13 04:46:50;;;;;;;13.23;8.02;;;18.30;84.90;;;;;;5013497;28;20078;-77
2022/09/13 04:49:18;;;;;;;12.77;7.78;;;18.30;84.90;;;;;;5030780;28;20185;-77
2022/09/13 04:51:46;;;;;;;13.23;7.05;;;18.30;85.10;;;;;;5013856;28;20046;-76
2022/09/13 04:54:14;;;;;;;13.17;8.50;;;18.30;85.70;;;;;;5013637;28;20053;-77
2022/09/13 04:56:41;;;;;;;12.18;7.68;;;18.30;85.50;;;;;;5031360;28;20060;-77
2022/09/13 04:59:10;;;;;;;14.15;8.32;;;18.20;85.70;;;;;;5031380;28;20046;-76
2022/09/13 05:01:38;;;;;;;14.45;8.32;;;18.20;85.40;;;;;;5029048;28;20054;-77
2022/09/13 05:04:06;;;;;;;11.50;7.30;;;18.20;85.40;;;;;;5030070;28;20058;-77
2022/09/13 05:06:34;;;;;;;10.77;7.13;;;18.20;85.40;;;;;;5029790;28;20046;-77
2022/09/13 05:09:02;;;;;;;12.68;7.50;;;18.20;85.80;;;;;;5013033;28;20052;-77
2022/09/13 05:11:29;;;;;;;12.85;7.38;;;18.20;85.70;;;;;;5031329;28;20104;-77
2022/09/13 05:13:58;;;;;;;13.32;7.47;;;18.20;85.70;;;;;;5031267;28;20137;-77
2022/09/13 05:16:28;;;;;;;11.68;7.68;;;18.20;85.50;;;;;;5029905;28;20462;-77
2022/09/13 05:18:56;;;;;;;10.10;6.53;;;18.30;85.50;;;;;;5031190;28;20064;-77
2022/09/13 05:21:23;;;;;;;11.43;7.35;;;18.30;85.50;;;;;;5029571;28;20065;-77
2022/09/13 05:23:52;;;;;;;10.52;7.45;;;18.30;85.40;;;;;;5031444;28;20050;-77
2022/09/13 05:26:20;;;;;;;11.85;7.72;;;18.30;85.50;;;;;;5031020;28;20050;-77
2022/09/13 05:28:48;;;;;;;11.43;7.13;;;18.30;85.60;;;;;;5012747;28;20124;-77
2022/09/13 05:31:16;;;;;;;10.63;6.27;;;18.30;85.60;;;;;;5012369;28;20054;-77
2022/09/13 05:33:46;;;;;;;11.02;6.35;;;18.30;85.60;;;;;;5012120;28;20062;-77
2022/09/13 05:36:13;;;;;;;12.48;7.18;;;18.30;85.70;;;;;;5030506;28;20120;-76
2022/09/13 05:38:40;;;;;;;11.45;5.90;;;18.30;85.80;;;;;;5029063;28;20085;-77
2022/09/13 05:41:07;;;;;;;9.13;6.07;;;18.30;85.70;;;;;;5027472;28;20064;-77
2022/09/13 05:43:36;;;;;;;9.70;5.17;;;18.30;85.70;;;;;;5027825;28;20209;-78
2022/09/13 05:46:05;;;;;;;8.68;5.43;;;18.40;85.70;;;;;;5029343;28;20050;-77
2022/09/13 05:48:33;;;;;;;8.10;5.13;;;18.30;85.70;;;;;;5009777;28;20892;-76
2022/09/13 05:51:07;;;;;;;7.75;4.88;;;18.30;85.70;;;;;;5009224;28;20128;-76
2022/09/13 05:53:35;;;;;;;6.75;4.47;;;18.30;85.50;;;;;;4992526;28;20050;-76
2022/09/13 05:56:02;;;;;;;7.00;3.37;;;18.30;85.40;;;;;;4992408;28;20082;-77
2022/09/13 05:58:29;;;;;;;6.32;3.20;;;18.30;85.50;;;;;;4992952;28;20050;-76
2022/09/13 06:00:57;;;;;;;5.95;3.25;;;18.30;85.30;;;;;;5010657;28;20077;-77
2022/09/13 06:03:24;;;;;;;6.68;3.63;;;18.30;85.10;;;;;;5030070;28;20145;-77
2022/09/13 06:05:55;;;;;;;6.35;2.88;;;18.30;85.10;;;;;;4995829;28;20574;-76
2022/09/13 06:08:25;;;;;;;5.70;3.17;;;18.20;85.10;;;;;;5027349;28;20084;-77
2022/09/13 06:10:57;;;;;;;5.15;2.15;;;18.30;85.00;;;;;;5011815;28;20050;-77
2022/09/13 06:13:25;;;;;;;5.65;2.50;;;18.30;84.80;;;;;;5022783;28;20108;-76
2022/09/13 06:15:54;;;;;;;5.15;1.92;;;18.30;84.70;;;;;;5014503;28;20046;-76
2022/09/13 06:18:23;;;;;;;6.97;1.95;;;18.30;84.60;;;;;;5031224;28;20085;-77
2022/09/13 06:20:50;;;;;;;4.13;1.60;;;18.20;84.40;;;;;;5029015;28;20058;-76
2022/09/13 06:23:18;;;;;;;4.10;1.77;;;18.20;84.40;;;;;;5031088;28;20066;-76
2022/09/13 06:25:46;;;;;;;4.60;1.52;;;18.20;84.30;;;;;;5013692;28;20124;-76
2022/09/13 06:28:13;;;;;;;4.53;1.88;;;18.20;84.20;;;;;;5012755;28;20052;-77
2022/09/13 06:30:41;;;;;;;5.28;1.50;;;18.20;84.10;;;;;;5015207;28;20057;-77
2022/09/13 06:33:08;;;;;;;5.00;1.50;;;18.10;84.10;;;;;;5013614;28;20056;-77
2022/09/13 06:35:38;;;;;;;4.30;1.52;;;18.10;84.00;;;;;;5029806;28;20514;-77
2022/09/13 06:38:05;;;;;;;4.80;1.60;;;18.10;83.90;;;;;;5014606;28;20128;-77
2022/09/13 06:40:32;;;;;;;5.28;1.50;;;18.10;84.00;;;;;;5014303;28;20061;-76
2022/09/13 06:43:00;;;;;;;5.50;1.45;;;18.10;84.00;;;;;;5014800;28;20056;-76
2022/09/13 06:45:28;;;;;;;4.83;1.50;;;18.10;84.30;;;;;;5030536;28;20136;-76
2022/09/13 06:47:55;;;;;;;5.45;1.60;;;18.10;84.00;;;;;;5014672;28;20096;-75
2022/09/13 06:50:22;;;;;;;3.55;1.50;;;18.00;84.20;;;;;;5012222;28;20056;-76
2022/09/13 06:52:49;;;;;;;4.30;1.48;;;18.00;84.40;;;;;;5031364;28;20058;-76
2022/09/13 06:55:17;;;;;;;5.53;1.77;;;18.00;84.40;;;;;;5012424;28;20060;-76
2022/09/13 06:57:44;;;;;;;4.80;1.77;;;18.00;84.50;;;;;;5030827;28;20046;-76
2022/09/13 07:00:13;;;;;;;3.95;1.83;;;18.00;84.50;;;;;;5013074;28;20046;-76
2022/09/13 07:02:41;;;;;;;4.55;1.77;;;18.00;84.60;;;;;;5031130;28;20054;-74
2022/09/13 07:05:09;;;;;;;5.00;1.60;;;18.00;84.50;;;;;;5012197;28;20137;-76
2022/09/13 07:07:36;;;;;;;4.35;1.60;;;18.00;84.70;;;;;;5031977;28;21025;-76
2022/09/13 07:10:04;;;;;;;4.00;1.33;;;18.00;84.80;;;;;;5011769;28;20466;-77
2022/09/13 07:12:31;;;;;;;5.95;1.98;;;18.00;84.70;;;;;;5013136;28;20054;-76
2022/09/13 07:14:58;;;;;;;4.88;1.50;;;18.00;84.70;;;;;;5030819;28;20049;-76
2022/09/13 07:17:27;;;;;;;5.28;1.85;;;18.00;84.70;;;;;;5030620;28;20046;-78
2022/09/13 07:19:54;;;;;;;6.10;1.90;;;18.00;84.70;;;;;;5012787;28;20480;-77
2022/09/13 07:22:25;;;;;;;4.90;1.90;;;18.00;84.80;;;;;;5012140;28;20064;-74
2022/09/13 07:24:52;;;;;;;7.43;1.80;;;18.00;85.00;;;;;;5029203;28;20502;-78
2022/09/13 07:27:19;;;;;;;5.22;1.60;;;18.00;84.80;;;;;;5014454;28;20585;-78
2022/09/13 07:29:46;;;;;;;3.53;1.33;;;18.00;85.20;;;;;;5014342;28;20054;-73
2022/09/13 07:32:14;;;;;;;6.63;2.28;;;18.00;85.10;;;;;;5013904;28;20133;-74
2022/09/13 07:34:42;;;;;;;5.97;1.70;;;18.00;85.00;;;;;;5014075;28;20435;-75
2022/09/13 07:41:12;;;;;;;8.05;1.88;;;18.00;85.40;;;;;;5013646;28;20065;-76
2022/09/13 07:43:39;;;;;;;5.38;1.80;;;18.00;85.40;;;;;;5031329;28;20145;-75
2022/09/13 07:46:08;;;;;;;5.05;1.58;;;18.00;85.70;;;;;;5031278;28;20141;-76
2022/09/13 07:48:36;;;;;;;5.50;1.50;;;18.00;85.30;;;;;;5013363;28;20888;-75
2022/09/13 07:51:06;;;;;;;6.07;1.90;;;18.00;85.40;;;;;;5013481;28;20468;-75
2022/09/13 07:53:35;;;;;;;5.55;1.50;;;18.10;85.50;;;;;;5013697;28;20046;-77
2022/09/13 07:56:03;;;;;;;6.60;1.42;;;18.10;85.80;;;;;;5029373;28;20385;-75
2022/09/13 07:58:31;;;;;;;4.95;1.20;;;18.10;85.50;;;;;;5012841;28;20053;-75
2022/09/13 08:01:04;;;;;;;5.33;1.03;;;18.10;84.90;;;;;;5012942;28;20050;-75
2022/09/13 08:03:31;;;;;;;4.95;1.05;;;18.20;84.70;;;;;;5029950;28;20581;-75
2022/09/13 08:05:57;;;;;;;4.72;1.10;;;18.20;84.10;;;;;;5012698;28;20531;-75
2022/09/13 08:08:26;;;;;;;4.32;0.80;;;18.20;84.00;;;;;;5030869;28;20056;-75
2022/09/13 08:10:53;;;;;;;4.93;0.90;;;18.20;83.80;;;;;;5030503;28;20058;-75
2022/09/13 08:13:20;;;;;;;7.23;1.10;;;18.30;83.40;;;;;;5030083;28;20054;-75
2022/09/13 08:15:47;;;;;;;3.83;1.33;;;18.30;83.30;;;;;;5029405;28;20131;-75
2022/09/13 08:18:14;;;;;;;3.90;0.82;;;18.30;83.20;;;;;;5011878;28;20049;-75
2022/09/13 08:20:41;;;;;;;3.45;0.77;;;18.30;82.60;;;;;;5030080;28;20062;-75
2022/09/13 08:23:09;;;;;;;3.53;0.70;;;18.30;82.50;;;;;;5029566;28;20058;-75
2022/09/13 08:25:38;;;;;;;4.20;0.80;;;18.30;82.50;;;;;;5011394;28;20498;-75
2022/09/13 08:28:06;;;;;;;4.47;1.20;;;18.30;82.20;;;;;;5010838;28;20073;-76
2022/09/13 08:30:35;;;;;;;3.92;0.75;;;18.30;82.10;;;;;;5010218;28;20124;-75
2022/09/13 08:33:03;;;;;;;5.18;0.80;;;18.40;81.70;;;;;;5010614;28;20046;-75
2022/09/13 08:35:31;;;;;;;3.70;0.88;;;18.40;81.30;;;;;;5029095;28;20074;-74
2022/09/13 08:37:58;;;;;;;4.87;1.00;;;18.40;81.40;;;;;;5011429;28;20050;-74
2022/09/13 08:40:28;;;;;;;5.63;0.70;;;18.40;80.90;;;;;;5031135;28;20053;-74
2022/09/13 08:43:05;;;;;;;5.43;0.90;;;18.40;80.30;;;;;;5012875;28;20046;-74
2022/09/13 08:45:32;;;;;;;2.92;0.73;;;18.40;80.20;;;;;;5030968;28;20046;-74
2022/09/13 08:48:04;;;;;;;3.92;0.90;;;18.40;79.70;;;;;;5011269;28;20360;-74
2022/09/13 08:50:35;;;;;;;3.07;0.60;;;18.40;79.60;;;;;;5030872;28;20052;-75
2022/09/13 08:53:17;;;;;;;3.60;0.77;;;18.40;79.10;;;;;;5030192;28;20493;-74
2022/09/13 08:55:54;;;;;;;3.78;0.68;;;18.40;78.70;;;;;;5030489;28;20046;-74
2022/09/13 08:58:45;;;;;;;3.90;0.75;;;18.50;78.70;;;;;;5029478;28;20147;-73
2022/09/13 09:01:23;;;;;;;3.47;0.73;;;18.50;78.40;;;;;;5012207;28;20050;-76
2022/09/13 09:03:58;;;;;;;3.47;0.83;;;18.50;78.30;;;;;;5027410;28;20057;-74
2022/09/13 09:06:25;;;;;;;3.70;0.70;;;18.50;78.10;;;;;;5028729;28;20407;-75
2022/09/13 09:08:59;;;;;;;4.43;1.05;;;18.50;77.20;;;;;;5028195;28;20471;-73
2022/09/13 09:11:31;;;;;;;4.25;0.80;;;18.60;77.10;;;;;;5028198;28;20054;-73
2022/09/13 09:14:05;;;;;;;2.95;0.70;;;18.60;77.30;;;;;;5008030;28;20504;-74
2022/09/13 09:16:37;;;;;;;3.83;0.87;;;18.60;76.70;;;;;;5029641;28;20440;-75
2022/09/13 09:19:14;;;;;;;2.78;0.70;;;18.60;76.90;;;;;;5030320;28;20130;-75
2022/09/13 09:21:42;;;;;;;2.83;0.68;;;18.70;77.40;;;;;;5012676;28;20362;-75
2022/09/13 09:24:15;;;;;;;3.28;0.50;;;18.70;76.10;;;;;;5029614;28;20054;-74
2022/09/13 09:26:42;;;;;;;3.10;0.68;;;18.70;76.10;;;;;;5012772;28;20524;-74
2022/09/13 09:29:17;;;;;;;2.90;0.60;;;18.80;74.90;;;;;;5030156;28;20062;-74
2022/09/13 09:31:54;;;;;;;4.43;0.60;;;18.80;74.50;;;;;;5030716;28;20054;-74
2022/09/13 09:34:41;;;;;;;2.70;0.50;;;18.80;73.50;;;;;;5013015;28;20196;-74
2022/09/13 09:37:15;;;;;;;3.58;0.50;;;18.90;73.70;;;;;;5030294;28;20054;-74
2022/09/13 09:39:43;;;;;;;3.40;0.55;;;18.90;74.40;;;;;;5030023;28;20054;-73
2022/09/13 09:42:16;;;;;;;2.60;0.60;;;18.90;73.50;;;;;;5028714;28;20060;-74
2022/09/13 09:44:46;;;;;;;3.35;0.52;;;18.90;72.30;;;;;;5030215;28;20078;-74
2022/09/13 09:47:17;;;;;;;1.95;0.40;;;18.90;72.50;;;;;;5017653;28;20042;-74
2022/09/13 09:52:38;;;;;;;3.28;0.80;;;19.00;71.70;;;;;;5015878;28;20053;-74
2022/09/13 09:55:15;;;;;;;3.73;0.50;;;19.00;71.70;;;;;;5015068;28;20129;-74
2022/09/13 09:57:54;;;;;;;6.43;0.60;;;19.00;70.90;;;;;;5014957;28;20157;-74
2022/09/13 10:00:24;;;;;;;2.63;0.70;;;19.10;68.40;;;;;;5029342;28;20128;-75
2022/09/13 10:02:54;;;;;;;2.92;0.50;;;19.10;69.30;;;;;;5013261;28;20484;-75
2022/09/13 10:05:25;;;;;;;2.40;0.50;;;19.10;69.60;;;;;;5013590;28;20244;-75
2022/09/13 10:07:58;;;;;;;2.57;0.70;;;19.10;69.50;;;;;;5013411;28;20054;-75
2022/09/13 10:10:31;;;;;;;2.72;0.52;;;19.10;70.00;;;;;;5012979;28;20054;-75
2022/09/13 10:12:59;;;;;;;4.32;0.70;;;19.20;69.70;;;;;;5011021;28;20057;-74
2022/09/13 10:15:32;;;;;;;5.05;0.65;;;19.20;69.40;;;;;;5013860;28;20546;-75
2022/09/13 10:18:15;;;;;;;3.95;0.70;;;19.20;68.20;;;;;;5033341;28;20054;-75
2022/09/13 10:20:43;;;;;;;3.80;0.47;;;19.20;67.70;;;;;;5032391;28;20058;-74
2022/09/13 10:23:19;;;;;;;3.40;0.70;;;19.20;68.00;;;;;;5015324;28;20054;-75
2022/09/13 10:25:57;;;;;;;3.10;0.50;;;19.30;68.10;;;;;;5014724;28;20420;-75
2022/09/13 10:28:25;;;;;;;4.47;0.63;;;19.30;68.00;;;;;;5014651;28;20133;-75
2022/09/13 10:30:57;;;;;;;2.58;0.60;;;19.40;68.60;;;;;;5014436;28;20658;-76
2022/09/13 10:33:31;;;;;;;4.00;0.53;;;19.40;69.00;;;;;;5014584;28;20061;-76
2022/09/13 10:36:02;;;;;;;3.58;0.60;;;19.50;67.00;;;;;;5010565;28;20054;-76
2022/09/13 10:38:35;;;;;;;2.42;0.32;;;19.50;66.50;;;;;;4994757;28;20554;-75
2022/09/13 10:41:06;;;;;;;4.95;0.68;;;19.50;67.10;;;;;;4995459;28;20560;-75
2022/09/13 10:43:33;;;;;;;3.30;0.60;;;19.50;65.60;;;;;;4990042;28;20046;-75
2022/09/13 10:46:04;;;;;;;2.93;0.43;;;19.50;66.50;;;;;;4998342;28;20053;-76
2022/09/13 10:48:45;;;;;;;4.57;0.50;;;19.50;67.00;;;;;;5017703;28;20567;-75
2022/09/13 10:51:28;;;;;;;4.28;0.70;;;19.60;66.70;;;;;;5006273;28;20050;-75
2022/09/13 10:54:09;;;;;;;4.05;0.47;;;19.70;66.80;;;;;;5032736;28;20054;-75
2022/09/13 10:56:36;;;;;;;4.47;0.50;;;19.70;66.00;;;;;;5014728;28;20052;-75
2022/09/13 10:59:16;;;;;;;4.73;0.67;;;19.70;66.20;;;;;;5031446;28;20472;-75
2022/09/13 11:02:04;;;;;;;4.15;0.50;;;19.70;63.60;;;;;;5032715;28;20705;-75
2022/09/13 11:05:00;;;;;;;5.63;0.65;;;19.70;64.40;;;;;;5015974;28;20054;-76
2022/09/13 11:07:49;;;;;;;5.97;0.60;;;19.80;63.90;;;;;;5014604;28;20046;-75
2022/09/13 11:10:24;;;;;;;4.78;0.68;;;19.80;63.70;;;;;;5031770;28;20135;-75
2022/09/13 11:13:05;;;;;;;2.57;0.47;;;19.90;64.30;;;;;;5012498;28;20459;-76
2022/09/13 11:15:44;;;;;;;2.75;0.65;;;19.90;62.70;;;;;;5029521;28;20864;-76
2022/09/13 11:18:27;;;;;;;3.03;0.50;;;20.00;63.90;;;;;;5030727;28;20140;-76
2022/09/13 11:21:04;;;;;;;2.38;0.70;;;20.00;62.90;;;;;;5011851;28;20050;-75
2022/09/13 11:23:55;;;;;;;3.90;0.60;;;20.00;62.30;;;;;;5013978;28;20049;-75
2022/09/13 11:26:40;;;;;;;4.80;0.70;;;20.10;61.70;;;;;;4996235;28;20056;-76
2022/09/13 11:29:25;;;;;;;5.38;0.60;;;20.10;61.20;;;;;;5018693;28;20201;-75
2022/09/13 11:32:06;;;;;;;3.30;0.52;;;20.20;60.50;;;;;;5028705;28;20046;-75
2022/09/13 11:34:48;;;;;;;5.35;0.50;;;20.20;60.80;;;;;;5009658;28;20061;-75
2022/09/13 11:37:35;;;;;;;5.40;0.47;;;20.30;60.40;;;;;;5019905;28;20070;-75
2022/09/13 11:40:21;;;;;;;4.67;0.50;;;20.30;59.80;;;;;;5011826;28;20056;-75
2022/09/13 11:42:59;;;;;;;3.20;0.50;;;20.30;60.70;;;;;;5028559;28;20101;-75
2022/09/13 11:45:28;;;;;;;4.15;0.57;;;20.30;61.90;;;;;;5032253;28;20060;-75
2022/09/13 11:48:08;;;;;;;3.22;0.60;;;20.40;62.20;;;;;;5027172;28;20116;-75
2022/09/13 11:50:46;;;;;;;2.88;0.57;;;20.50;62.20;;;;;;5010031;28;20503;-75
2022/09/13 11:53:29;;;;;;;3.50;0.50;;;20.50;62.10;;;;;;5011004;28;20121;-76
2022/09/13 11:56:02;;;;;;;2.30;0.50;;;20.60;61.40;;;;;;5011916;28;20049;-76
2022/09/13 11:58:35;;;;;;;4.63;0.55;;;20.60;60.20;;;;;;5029872;28;20141;-75
2022/09/13 12:01:07;;;;;;;3.70;0.75;;;20.70;60.50;;;;;;5031471;28;20108;-76
2022/09/13 12:03:39;;;;;;;3.15;0.57;;;20.70;61.30;;;;;;5010943;28;20125;-76
2022/09/13 12:06:13;;;;;;;5.50;0.60;;;20.80;61.80;;;;;;5013633;28;20679;-75
2022/09/13 12:08:45;;;;;;;5.10;0.77;;;20.80;60.80;;;;;;5031949;28;20164;-75
2022/09/13 12:11:19;;;;;;;3.85;0.70;;;20.80;61.00;;;;;;5031120;28;20054;-75
2022/09/13 12:13:51;;;;;;;5.15;0.70;;;20.80;61.90;;;;;;5013532;28;20539;-76
2022/09/13 12:16:23;;;;;;;3.13;0.60;;;20.80;61.40;;;;;;5013668;28;20094;-76
2022/09/13 12:18:54;;;;;;;3.70;0.90;;;20.90;61.20;;;;;;5013584;28;20045;-76
2022/09/13 12:21:25;;;;;;;3.17;0.60;;;20.90;59.90;;;;;;5031380;28;20113;-76
2022/09/13 12:24:01;;;;;;;5.80;0.63;;;20.80;58.80;;;;;;5031137;28;20133;-75
2022/09/13 12:26:35;;;;;;;5.93;0.65;;;20.80;59.90;;;;;;5031182;28;20060;-76
2022/09/13 12:29:11;;;;;;;5.15;0.73;;;20.80;59.10;;;;;;5031197;28;20053;-76
2022/09/13 12:31:38;;;;;;;4.50;0.80;;;20.80;58.00;;;;;;5013363;28;20133;-74
2022/09/13 12:34:07;;;;;;;3.28;0.60;;;20.80;59.30;;;;;;5031068;28;20054;-75
2022/09/13 12:36:52;;;;;;;2.90;0.68;;;20.80;58.40;;;;;;5013223;28;20506;-75
2022/09/13 12:39:36;;;;;;;2.40;0.55;;;20.90;59.70;;;;;;5013113;28;20053;-75
2022/09/13 12:42:25;;;;;;;3.88;0.55;;;20.90;59.00;;;;;;5013184;28;20060;-76
2022/09/13 12:45:15;;;;;;;2.63;0.47;;;21.00;58.10;;;;;;5013097;28;20046;-75
2022/09/13 12:47:59;;;;;;;4.22;0.50;;;20.90;59.20;;;;;;5010886;28;20053;-76
2022/09/13 12:50:48;;;;;;;3.38;0.65;;;21.00;58.90;;;;;;5010791;28;20046;-76
2022/09/13 12:53:47;;;;;;;3.88;0.75;;;21.10;58.50;;;;;;5012835;28;20052;-75
2022/09/13 12:56:27;;;;;;;3.58;0.70;;;21.10;59.10;;;;;;5002492;28;20052;-74
2022/09/13 12:59:18;;;;;;;2.97;0.80;;;21.20;59.50;;;;;;5027271;28;20052;-75
2022/09/13 13:01:48;;;;;;;4.00;0.75;;;21.30;59.90;;;;;;5007031;28;20146;-74
2022/09/13 13:04:18;;;;;;;4.55;0.50;;;21.40;60.60;;;;;;4994370;28;20058;-74
2022/09/13 13:06:52;;;;;;;3.50;0.60;;;21.50;60.60;;;;;;4989743;28;20042;-74
2022/09/13 13:09:30;;;;;;;5.65;0.70;;;21.50;58.50;;;;;;5010842;28;20495;-74
2022/09/13 13:11:58;;;;;;;4.00;0.50;;;21.60;59.20;;;;;;5028030;28;20058;-75
2022/09/13 13:14:47;;;;;;;4.80;0.73;;;21.70;59.60;;;;;;5026580;28;20153;-75
2022/09/13 13:17:37;;;;;;;2.25;0.40;;;21.80;56.50;;;;;;5027707;28;20154;-74
2022/09/13 13:20:52;;;;;;;4.20;0.50;;;21.90;57.80;;;;;;5011245;28;20125;-74
2022/09/13 13:23:28;;;;;;;4.28;0.70;;;21.90;56.40;;;;;;4954207;28;20549;-74